Time;durP1;ratioP1;P1;durP2;ratioP2;P2;SDS_P1;SDS_P2;PMS_P1;PMS_P2;Temp;Humidity;BMP_temperature;BMP_pressure;BME280_temperature;BME280_humidity;BME280_pressure;Samples;Min_cycle;Max_cycle;Signal;HPM_P1;HPM_P2
2023/01/23 00:01:32;;;;;;;40.07;22.77;;;;;;;9.92;100.00;100231.09;5031607;28;20197;-67
2023/01/23 00:03:59;;;;;;;45.13;22.83;;;;;;;9.89;100.00;100241.22;5031836;28;20216;-67
2023/01/23 00:06:26;;;;;;;35.57;23.40;;;;;;;9.77;100.00;100234.66;5027910;28;20195;-67
2023/01/23 00:08:55;;;;;;;40.27;23.87;;;;;;;9.75;100.00;100237.47;5015936;28;20197;-67
2023/01/23 00:11:24;;;;;;;45.13;26.23;;;;;;;9.72;100.00;100237.00;5015642;28;20192;-67
2023/01/23 00:13:51;;;;;;;43.50;26.67;;;;;;;9.79;100.00;100230.00;5015799;28;20193;-67
2023/01/23 00:16:21;;;;;;;43.03;27.00;;;;;;;9.84;100.00;100222.31;4976152;28;20573;-67
2023/01/23 00:18:48;;;;;;;50.17;28.57;;;;;;;9.81;100.00;100233.31;4983265;28;20195;-67
2023/01/23 00:21:19;;;;;;;43.87;29.33;;;;;;;9.76;100.00;100233.00;4995021;28;20345;-67
2023/01/23 00:23:48;;;;;;;52.03;30.47;;;;;;;9.78;100.00;100234.50;4995739;28;20698;-67
2023/01/23 00:26:19;;;;;;;49.50;27.87;;;;;;;9.67;100.00;100249.94;4995763;28;20195;-67
2023/01/23 00:28:47;;;;;;;52.10;28.33;;;;;;;9.74;100.00;100240.28;4957191;28;20191;-67
2023/01/23 00:31:15;;;;;;;56.13;29.57;;;;;;;9.74;100.00;100250.91;4970158;28;20195;-67
2023/01/23 00:33:43;;;;;;;49.40;30.20;;;;;;;9.78;100.00;100244.25;4976191;28;20195;-67
2023/01/23 00:36:10;;;;;;;57.50;31.33;;;;;;;9.82;100.00;100250.88;4976521;28;20195;-67
2023/01/23 00:38:37;;;;;;;63.43;31.50;;;;;;;9.88;100.00;100242.22;4976314;28;20238;-67
2023/01/23 00:41:04;;;;;;;59.03;30.57;;;;;;;9.85;100.00;100242.56;4976443;28;20653;-67
2023/01/23 00:43:33;;;;;;;49.67;29.50;;;;;;;9.81;100.00;100246.56;4976151;28;20231;-67
2023/01/23 00:46:00;;;;;;;54.17;28.93;;;;;;;9.84;100.00;100240.91;4976367;28;20249;-67
2023/01/23 00:48:27;;;;;;;48.03;28.47;;;;;;;9.88;100.00;100252.81;4976434;28;20262;-67
2023/01/23 00:50:54;;;;;;;48.67;27.17;;;;;;;9.80;100.00;100247.59;4995610;28;20194;-67
2023/01/23 00:53:21;;;;;;;51.60;27.00;;;;;;;9.83;100.00;100261.31;4995645;28;20198;-67
2023/01/23 00:55:48;;;;;;;52.20;29.23;;;;;;;9.78;100.00;100265.47;4995443;28;20665;-67
2023/01/23 00:58:15;;;;;;;51.53;28.23;;;;;;;9.78;100.00;100262.84;4995612;28;20194;-67
2023/01/23 01:00:43;;;;;;;60.73;28.50;;;;;;;9.90;100.00;100282.69;4990518;28;20203;-67
2023/01/23 01:03:10;;;;;;;57.37;27.97;;;;;;;9.84;100.00;100267.44;4975496;28;20199;-67
2023/01/23 01:05:36;;;;;;;49.47;28.50;;;;;;;9.76;100.00;100262.19;4975574;28;20257;-67
2023/01/23 01:08:03;;;;;;;66.70;29.63;;;;;;;9.82;100.00;100258.84;4975511;28;20250;-66
2023/01/23 01:10:31;;;;;;;61.37;30.90;;;;;;;9.90;100.00;100270.25;4987753;28;20187;-66
2023/01/23 01:12:59;;;;;;;53.83;29.10;;;;;;;9.92;100.00;100270.06;4975642;28;20254;-66
2023/01/23 01:15:26;;;;;;;49.53;25.87;;;;;;;10.00;100.00;100270.00;5001127;28;20229;-66
2023/01/23 01:17:54;;;;;;;42.83;23.70;;;;;;;9.79;100.00;100285.69;5014005;28;20255;-66
2023/01/23 01:20:22;;;;;;;44.43;22.53;;;;;;;9.81;100.00;100278.41;5031033;28;20194;-66
2023/01/23 01:22:49;;;;;;;44.60;22.53;;;;;;;9.84;100.00;100272.75;5034383;28;20201;-67
2023/01/23 01:25:16;;;;;;;49.07;23.10;;;;;;;9.88;100.00;100279.34;5033893;28;20225;-66
2023/01/23 01:27:43;;;;;;;60.37;22.40;;;;;;;9.85;100.00;100287.69;5024427;28;20735;-66
2023/01/23 01:30:11;;;;;;;44.73;21.90;;;;;;;9.80;100.00;100300.66;5014407;28;20192;-67
2023/01/23 01:32:40;;;;;;;39.57;22.33;;;;;;;9.78;100.00;100290.19;5014245;28;20583;-67
2023/01/23 01:35:10;;;;;;;38.60;22.00;;;;;;;9.64;100.00;100282.13;5014373;28;20256;-66
2023/01/23 01:37:38;;;;;;;40.47;22.20;;;;;;;9.69;100.00;100290.41;5014560;28;20338;-67
2023/01/23 01:40:07;;;;;;;40.97;21.43;;;;;;;9.58;100.00;100293.41;5013972;28;20193;-67
2023/01/23 01:42:39;;;;;;;60.43;26.20;;;;;;;9.63;100.00;100302.50;5014033;28;20660;-67
2023/01/23 01:45:07;;;;;;;54.67;24.37;;;;;;;9.67;100.00;100295.03;5014329;28;20280;-67
2023/01/23 01:47:34;;;;;;;52.50;25.57;;;;;;;9.71;100.00;100299.00;5014284;28;20264;-66
2023/01/23 01:50:06;;;;;;;48.80;23.60;;;;;;;9.73;100.00;100299.66;5025245;28;20221;-67
2023/01/23 01:52:34;;;;;;;40.00;22.33;;;;;;;9.78;100.00;100289.38;5033634;28;20216;-67
2023/01/23 01:55:05;;;;;;;38.93;21.30;;;;;;;9.83;100.00;100281.72;5034036;28;20550;-67
2023/01/23 01:57:35;;;;;;;37.67;20.47;;;;;;;9.77;100.00;100283.22;5033840;28;20224;-67
2023/01/23 02:00:05;;;;;;;45.07;20.80;;;;;;;9.73;100.00;100294.38;5033864;28;20185;-67
2023/01/23 02:02:35;;;;;;;34.77;19.87;;;;;;;9.80;100.00;100284.72;5032712;28;20192;-66
2023/01/23 02:05:07;;;;;;;37.73;19.83;;;;;;;9.89;100.00;100291.66;5033281;28;20283;-67
2023/01/23 02:07:40;;;;;;;40.50;20.83;;;;;;;9.85;100.00;100290.34;5033350;28;20211;-67
2023/01/23 02:10:09;;;;;;;44.23;21.23;;;;;;;9.80;100.00;100290.84;5033353;28;20248;-67
2023/01/23 02:12:37;;;;;;;42.30;24.17;;;;;;;9.79;100.00;100277.75;5033242;28;20228;-67
2023/01/23 02:15:06;;;;;;;50.90;22.40;;;;;;;9.75;100.00;100301.16;5033048;28;20239;-67
2023/01/23 02:17:35;;;;;;;51.50;22.33;;;;;;;9.65;100.00;100286.44;5032743;28;20193;-67
2023/01/23 02:20:12;;;;;;;46.57;22.90;;;;;;;9.65;100.00;100287.22;5012191;28;20198;-67
2023/01/23 02:22:49;;;;;;;43.77;22.60;;;;;;;9.59;100.00;100287.09;5013686;28;20190;-67
2023/01/23 02:25:22;;;;;;;40.77;21.30;;;;;;;9.67;100.00;100287.91;5013702;28;20206;-67
2023/01/23 02:27:50;;;;;;;45.30;22.07;;;;;;;9.77;100.00;100293.03;5013166;28;20727;-67
2023/01/23 02:30:18;;;;;;;44.20;23.23;;;;;;;9.75;100.00;100287.88;5026389;28;20254;-67
2023/01/23 02:32:45;;;;;;;41.23;21.17;;;;;;;9.76;100.00;100296.69;5013403;28;20189;-67
2023/01/23 02:35:18;;;;;;;41.87;21.77;;;;;;;9.78;100.00;100307.94;5013265;28;20201;-67
2023/01/23 02:37:48;;;;;;;36.13;20.10;;;;;;;9.79;100.00;100291.00;5026034;28;20544;-67
2023/01/23 02:40:15;;;;;;;39.40;20.73;;;;;;;9.80;100.00;100290.03;5032908;28;20259;-66
2023/01/23 02:42:45;;;;;;;36.90;20.67;;;;;;;9.79;100.00;100289.19;5032611;28;20200;-67
2023/01/23 02:45:13;;;;;;;35.97;20.93;;;;;;;9.63;100.00;100291.06;5032714;28;20225;-67
2023/01/23 02:47:39;;;;;;;40.83;21.27;;;;;;;9.73;100.00;100291.72;5019735;28;20198;-67
2023/01/23 02:50:07;;;;;;;36.63;18.67;;;;;;;9.78;100.00;100290.19;5012701;28;20197;-67
2023/01/23 02:52:33;;;;;;;37.90;20.57;;;;;;;9.77;100.00;100295.69;5013039;28;20193;-67
2023/01/23 02:55:00;;;;;;;38.03;19.80;;;;;;;9.62;100.00;100306.16;5012602;28;20629;-67
2023/01/23 02:57:27;;;;;;;32.87;18.57;;;;;;;9.63;100.00;100307.81;5013006;28;20247;-67
2023/01/23 03:02:39;;;;;;;34.37;19.70;;;;;;;9.80;100.00;100309.41;5032555;28;20180;-67
2023/01/23 03:05:07;;;;;;;29.30;17.87;;;;;;;9.80;100.00;100324.53;5032092;28;20217;-67
2023/01/23 03:07:34;;;;;;;31.50;16.83;;;;;;;9.82;100.00;100307.44;5032483;28;20201;-67
2023/01/23 03:10:01;;;;;;;29.77;17.83;;;;;;;9.72;100.00;100311.28;5032225;28;20193;-67
2023/01/23 03:12:28;;;;;;;33.00;18.10;;;;;;;9.73;100.00;100310.28;5015517;28;20190;-67
2023/01/23 03:14:55;;;;;;;35.67;17.97;;;;;;;9.82;100.00;100310.09;5012185;28;20237;-66
2023/01/23 03:17:23;;;;;;;33.33;18.00;;;;;;;9.90;100.00;100314.53;5012416;28;20241;-67
2023/01/23 03:19:51;;;;;;;33.77;19.20;;;;;;;9.83;100.00;100313.53;5012595;28;20302;-67
2023/01/23 03:22:17;;;;;;;31.30;18.03;;;;;;;9.77;100.00;100316.91;5012659;28;20198;-67
2023/01/23 03:24:44;;;;;;;29.87;18.17;;;;;;;9.84;100.00;100316.03;5028748;28;20217;-67
2023/01/23 03:27:11;;;;;;;28.17;16.83;;;;;;;9.76;100.00;100312.59;5032416;28;20262;-67
2023/01/23 03:32:24;;;;;;;30.83;16.97;;;;;;;9.58;100.00;100309.31;4992756;28;20201;-67
2023/01/23 03:34:52;;;;;;;40.27;18.90;;;;;;;9.62;100.00;100315.94;4999303;28;20204;-67
2023/01/23 03:37:19;;;;;;;44.50;20.90;;;;;;;9.64;100.00;100304.16;5031889;28;20219;-67
2023/01/23 03:42:33;;;;;;;38.53;18.73;;;;;;;9.73;100.00;100313.75;5031273;28;20242;-67
2023/01/23 03:44:59;;;;;;;37.90;19.90;;;;;;;9.77;100.00;100308.94;5036505;28;20228;-67
2023/01/23 03:47:26;;;;;;;39.67;20.87;;;;;;;9.66;100.00;100309.28;5035271;28;20250;-67
2023/01/23 03:49:55;;;;;;;46.73;21.50;;;;;;;9.68;100.00;100315.28;5031590;28;20201;-67
2023/01/23 03:52:21;;;;;;;42.10;20.77;;;;;;;9.74;100.00;100320.72;5036169;28;20197;-67
2023/01/23 03:54:48;;;;;;;31.07;19.30;;;;;;;9.64;100.00;100320.06;5035676;28;20668;-67
2023/01/23 03:57:15;;;;;;;31.27;19.03;;;;;;;9.41;100.00;100321.81;5036366;28;20254;-67
2023/01/23 03:59:42;;;;;;;46.10;21.57;;;;;;;9.36;100.00;100337.34;5034366;28;20247;-67
2023/01/23 04:02:09;;;;;;;39.43;24.10;;;;;;;9.43;100.00;100342.81;5036245;28;20194;-66
2023/01/23 04:04:36;;;;;;;32.93;20.03;;;;;;;9.37;100.00;100333.75;5035840;28;20274;-66
2023/01/23 04:07:05;;;;;;;40.33;21.13;;;;;;;9.28;100.00;100337.38;5035778;28;20249;-67
2023/01/23 04:09:32;;;;;;;37.37;20.67;;;;;;;9.15;100.00;100347.66;5035841;28;20234;-67
2023/01/23 04:11:59;;;;;;;33.40;19.27;;;;;;;9.20;100.00;100344.50;5020080;28;20255;-67
2023/01/23 04:14:29;;;;;;;35.53;20.70;;;;;;;9.13;100.00;100339.06;5015527;28;20233;-66
2023/01/23 04:16:56;;;;;;;36.63;20.97;;;;;;;9.08;100.00;100344.03;5015757;28;20648;-67
2023/01/23 04:19:22;;;;;;;40.77;24.17;;;;;;;9.16;100.00;100341.38;5022156;28;20275;-66
2023/01/23 04:21:49;;;;;;;45.80;25.33;;;;;;;9.23;100.00;100346.84;5035565;28;20271;-67
2023/01/23 04:24:17;;;;;;;44.60;22.23;;;;;;;9.28;100.00;100349.81;5035163;28;20193;-67
2023/01/23 04:26:44;;;;;;;37.17;22.33;;;;;;;9.28;100.00;100349.81;5035421;28;20193;-67
2023/01/23 04:29:11;;;;;;;43.40;23.37;;;;;;;9.30;100.00;100358.41;5029596;28;20687;-67
2023/01/23 04:31:38;;;;;;;41.87;22.63;;;;;;;9.28;100.00;100353.28;5015110;28;20221;-66
2023/01/23 04:34:04;;;;;;;48.87;23.77;;;;;;;9.27;100.00;100364.88;5015643;28;20197;-66
2023/01/23 04:36:31;;;;;;;46.43;22.17;;;;;;;9.27;100.00;100369.38;5015493;28;20202;-66
2023/01/23 04:38:58;;;;;;;43.40;22.63;;;;;;;9.23;100.00;100370.69;5027126;28;20189;-67
2023/01/23 04:41:27;;;;;;;36.77;21.30;;;;;;;9.21;100.00;100380.63;5015181;28;20288;-67
2023/01/23 04:43:54;;;;;;;40.03;19.70;;;;;;;9.22;100.00;100369.00;5015090;28;20198;-67
2023/01/23 04:46:21;;;;;;;39.37;20.57;;;;;;;9.14;100.00;100369.00;5015268;28;20275;-66
2023/01/23 04:48:49;;;;;;;33.17;19.77;;;;;;;9.14;100.00;100379.63;5025824;28;20193;-66
2023/01/23 04:51:15;;;;;;;37.13;20.70;;;;;;;9.04;100.00;100371.84;5034650;28;20669;-67
2023/01/23 04:53:42;;;;;;;28.83;18.03;;;;;;;8.94;100.00;100380.94;5033616;28;20254;-65
2023/01/23 04:56:09;;;;;;;38.10;19.97;;;;;;;8.88;100.00;100385.09;5034583;28;20676;-65
2023/01/23 04:58:37;;;;;;;39.17;20.57;;;;;;;8.66;100.00;100377.72;5024618;28;20198;-64
2023/01/23 05:01:06;;;;;;;36.43;19.00;;;;;;;8.80;100.00;100402.75;5014066;28;20198;-65
2023/01/23 05:03:36;;;;;;;31.70;19.10;;;;;;;8.83;100.00;100402.44;5013361;28;20669;-65
2023/01/23 05:06:03;;;;;;;32.77;20.17;;;;;;;8.94;100.00;100384.41;5013479;28;20225;-66
2023/01/23 05:08:29;;;;;;;32.40;20.30;;;;;;;8.80;100.00;100392.16;5014645;28;20197;-65
2023/01/23 05:10:56;;;;;;;37.13;20.33;;;;;;;8.87;100.00;100409.09;5024632;28;20255;-65
2023/01/23 05:13:23;;;;;;;33.33;20.13;;;;;;;8.77;100.00;100400.44;5034780;28;20196;-65
2023/01/23 05:15:51;;;;;;;27.30;18.13;;;;;;;8.81;100.00;100399.13;5034655;28;20232;-65
2023/01/23 05:18:17;;;;;;;34.97;18.90;;;;;;;8.86;100.00;100396.84;5034705;28;20189;-65
2023/01/23 05:20:44;;;;;;;35.80;20.07;;;;;;;8.90;100.00;100414.06;5033994;28;20254;-65
2023/01/23 05:23:11;;;;;;;34.80;20.73;;;;;;;8.92;100.00;100418.22;5023023;28;20263;-65
2023/01/23 05:25:37;;;;;;;35.13;19.93;;;;;;;8.81;100.00;100425.59;5014481;28;20231;-65
2023/01/23 05:28:04;;;;;;;39.70;19.77;;;;;;;8.78;100.00;100418.81;5014665;28;20661;-65
2023/01/23 05:30:31;;;;;;;34.10;19.17;;;;;;;8.63;100.00;100420.44;5014230;28;20202;-63
2023/01/23 05:32:59;;;;;;;35.90;18.83;;;;;;;8.68;100.00;100414.66;5014370;28;20272;-63
2023/01/23 05:35:26;;;;;;;37.23;19.53;;;;;;;8.66;100.00;100417.47;5026531;28;20194;-64
2023/01/23 05:37:53;;;;;;;39.47;18.83;;;;;;;8.77;100.00;100437.53;5033769;28;20197;-64
2023/01/23 05:40:20;;;;;;;40.50;19.07;;;;;;;8.75;100.00;100431.56;5034389;28;20275;-65
2023/01/23 05:42:47;;;;;;;33.63;19.73;;;;;;;8.82;100.00;100428.09;5033946;28;20197;-65
2023/01/23 05:45:14;;;;;;;43.03;19.67;;;;;;;8.76;100.00;100428.75;5032637;28;20312;-66
2023/01/23 05:47:42;;;;;;;42.37;20.70;;;;;;;8.63;100.00;100415.16;5017338;28;20202;-66
2023/01/23 05:50:15;;;;;;;32.10;19.83;;;;;;;8.68;100.00;100438.50;5013562;28;20263;-65
2023/01/23 05:52:42;;;;;;;41.77;24.17;;;;;;;8.64;100.00;100439.81;5013633;28;20193;-65
2023/01/23 05:55:09;;;;;;;53.60;25.27;;;;;;;8.67;100.00;100429.75;5013945;28;20198;-64
2023/01/23 05:57:36;;;;;;;43.77;25.13;;;;;;;8.73;100.00;100444.13;5013233;28;20256;-65
2023/01/23 06:00:04;;;;;;;36.97;19.63;;;;;;;8.80;100.00;100450.44;5013897;28;20585;-65
2023/01/23 06:02:31;;;;;;;37.77;21.00;;;;;;;8.78;100.00;100447.16;4993810;28;20200;-65
2023/01/23 06:04:57;;;;;;;29.53;18.83;;;;;;;8.78;100.00;100452.44;5000316;28;20669;-65
2023/01/23 06:07:26;;;;;;;36.40;21.73;;;;;;;8.77;100.00;100450.75;5013505;28;20193;-65
2023/01/23 06:09:52;;;;;;;39.03;18.37;;;;;;;8.61;100.00;100482.47;5013429;28;20657;-65
2023/01/23 06:12:19;;;;;;;34.60;18.97;;;;;;;8.66;100.00;100472.28;5013184;28;20194;-65
2023/01/23 06:14:47;;;;;;;39.57;18.30;;;;;;;8.66;100.00;100470.44;5013320;28;20241;-65
2023/01/23 06:17:14;;;;;;;38.27;21.37;;;;;;;8.64;100.00;100466.28;5019495;28;20213;-65
2023/01/23 06:19:41;;;;;;;46.03;24.70;;;;;;;8.66;100.00;100491.63;5017132;28;20203;-66
2023/01/23 06:22:07;;;;;;;42.60;20.60;;;;;;;8.64;100.00;100492.78;5012735;28;20210;-66
2023/01/23 06:24:36;;;;;;;37.23;20.90;;;;;;;8.68;100.00;100491.47;5011034;28;20559;-65
2023/01/23 06:27:07;;;;;;;31.43;18.30;;;;;;;8.70;100.00;100497.44;4997628;28;20793;-66
2023/01/23 06:29:33;;;;;;;27.07;17.50;;;;;;;8.77;100.00;100494.00;5008165;28;20185;-67
2023/01/23 06:32:00;;;;;;;33.37;17.93;;;;;;;8.75;100.00;100495.13;5011810;28;20194;-66
2023/01/23 06:34:27;;;;;;;29.03;16.80;;;;;;;8.78;100.00;100489.53;5012195;28;20252;-66
2023/01/23 06:36:54;;;;;;;42.10;16.97;;;;;;;8.79;100.00;100491.19;5018061;28;20205;-66
2023/01/23 06:39:20;;;;;;;31.53;16.67;;;;;;;8.79;100.00;100493.84;5032169;28;20664;-66
2023/01/23 06:41:48;;;;;;;41.37;17.10;;;;;;;8.80;100.00;100503.44;5032082;28;20193;-68
2023/01/23 06:44:15;;;;;;;31.73;16.93;;;;;;;8.47;100.00;100509.56;5032939;28;20263;-66
2023/01/23 06:46:42;;;;;;;32.13;17.13;;;;;;;8.41;100.00;100512.88;5031465;28;20217;-63
2023/01/23 06:49:10;;;;;;;35.80;16.67;;;;;;;8.54;100.00;100514.06;5027271;28;20665;-64
2023/01/23 06:51:36;;;;;;;35.27;18.87;;;;;;;8.44;100.00;100512.53;5005078;28;20252;-69
2023/01/23 06:54:03;;;;;;;36.97;25.47;;;;;;;8.47;100.00;100520.16;5006812;28;20244;-69
2023/01/23 06:56:30;;;;;;;48.73;28.83;;;;;;;8.54;100.00;100542.38;5009781;28;20558;-67
2023/01/23 06:58:58;;;;;;;66.27;42.77;;;;;;;8.55;100.00;100528.16;5010230;28;20198;-69
2023/01/23 07:01:25;;;;;;;44.17;29.23;;;;;;;8.56;100.00;100519.22;5011899;28;20190;-68
2023/01/23 07:03:52;;;;;;;31.30;17.30;;;;;;;8.50;100.00;100523.31;5011187;28;20589;-68
2023/01/23 07:06:19;;;;;;;34.43;17.53;;;;;;;8.66;100.00;100523.41;5012195;28;20217;-68
2023/01/23 07:08:46;;;;;;;36.93;17.17;;;;;;;8.73;100.00;100523.59;5012843;28;20224;-68
2023/01/23 07:11:12;;;;;;;34.30;18.77;;;;;;;8.75;100.00;100517.19;5019547;28;20276;-68
2023/01/23 07:13:39;;;;;;;32.50;18.57;;;;;;;8.63;100.00;100517.59;5012057;28;20194;-70
2023/01/23 07:16:07;;;;;;;34.07;17.30;;;;;;;8.74;100.00;100525.28;5012101;28;20720;-70
2023/01/23 07:18:34;;;;;;;32.97;17.77;;;;;;;8.72;100.00;100522.78;5009822;28;20742;-70
2023/01/23 07:21:04;;;;;;;32.10;16.77;;;;;;;8.60;100.00;100515.25;5012931;28;20232;-68
2023/01/23 07:23:31;;;;;;;26.43;17.03;;;;;;;8.68;100.00;100521.44;5022241;28;20383;-68
2023/01/23 07:26:02;;;;;;;30.47;17.77;;;;;;;8.69;100.00;100528.38;5011963;28;20217;-69
2023/01/23 07:28:29;;;;;;;46.43;28.63;;;;;;;8.66;100.00;100519.94;5022704;28;20197;-68
2023/01/23 07:30:58;;;;;;;29.40;17.47;;;;;;;8.59;100.00;100516.25;5012012;28;20199;-71
2023/01/23 07:33:26;;;;;;;28.23;16.03;;;;;;;8.69;100.00;100538.13;5012040;28;20233;-69
2023/01/23 07:35:53;;;;;;;20.00;14.43;;;;;;;8.65;100.00;100492.63;5012279;28;20213;-68
2023/01/23 07:38:22;;;;;;;24.97;14.63;;;;;;;8.78;100.00;100521.31;5018878;28;20244;-68
2023/01/23 07:40:49;;;;;;;22.20;14.20;;;;;;;8.86;100.00;100524.00;5027780;28;20193;-70
2023/01/23 07:43:15;;;;;;;25.70;15.37;;;;;;;8.88;100.00;100519.34;5031866;28;20193;-71
2023/01/23 07:45:42;;;;;;;20.83;13.37;;;;;;;8.88;100.00;100529.94;5031375;28;20278;-70
2023/01/23 07:48:09;;;;;;;24.73;14.97;;;;;;;8.88;100.00;100519.34;5030259;28;20193;-68
2023/01/23 07:50:37;;;;;;;29.03;14.20;;;;;;;8.84;100.00;100510.06;5014503;28;20194;-68
2023/01/23 07:53:05;;;;;;;21.77;15.07;;;;;;;8.88;100.00;100503.47;5011538;28;20205;-69
2023/01/23 07:55:32;;;;;;;32.60;13.33;;;;;;;8.97;100.00;100516.59;5018889;28;20193;-68
2023/01/23 07:57:59;;;;;;;20.47;12.87;;;;;;;8.88;100.00;100519.34;5023625;28;20194;-67
2023/01/23 08:00:25;;;;;;;26.57;13.97;;;;;;;8.85;100.00;100509.91;5011795;28;20588;-69
2023/01/23 08:02:52;;;;;;;28.50;15.30;;;;;;;8.86;100.00;100508.09;5011557;28;20267;-68
2023/01/23 08:05:19;;;;;;;22.73;15.13;;;;;;;8.93;100.00;100519.69;5013532;28;20189;-71
2023/01/23 08:07:47;;;;;;;24.37;15.20;;;;;;;8.87;100.00;100512.41;5022479;28;20190;-70
2023/01/23 08:10:14;;;;;;;23.90;15.77;;;;;;;8.91;100.00;100511.91;5012613;28;20194;-67
2023/01/23 08:12:41;;;;;;;26.93;15.93;;;;;;;8.97;100.00;100515.75;5011636;28;20624;-69
2023/01/23 08:15:08;;;;;;;26.30;13.87;;;;;;;8.97;100.00;100526.34;5012808;28;20227;-68
2023/01/23 08:17:36;;;;;;;24.17;14.47;;;;;;;9.04;100.00;100532.66;4991987;28;20202;-68
2023/01/23 08:20:04;;;;;;;21.50;14.23;;;;;;;8.94;100.00;100535.44;4992131;28;20277;-67
2023/01/23 08:22:32;;;;;;;20.23;12.57;;;;;;;9.03;100.00;100555.69;4992328;28;20637;-69
2023/01/23 08:25:00;;;;;;;31.57;15.43;;;;;;;8.89;100.00;100544.84;5004135;28;20240;-68
2023/01/23 08:27:27;;;;;;;21.07;13.97;;;;;;;8.84;100.00;100536.56;5012053;28;20840;-70
2023/01/23 08:29:53;;;;;;;22.10;13.93;;;;;;;8.89;100.00;100539.56;5019259;28;20737;-69
2023/01/23 08:32:20;;;;;;;27.80;14.70;;;;;;;8.96;100.00;100545.88;5015232;28;20197;-68
2023/01/23 08:34:47;;;;;;;28.00;15.00;;;;;;;9.00;100.00;100539.28;5015052;28;20202;-68
2023/01/23 08:37:14;;;;;;;26.63;15.00;;;;;;;8.85;100.00;100544.34;5015052;28;20198;-69
2023/01/23 08:39:41;;;;;;;23.03;13.50;;;;;;;8.89;100.00;100558.09;5015106;28;20279;-69
2023/01/23 08:42:10;;;;;;;27.90;15.30;;;;;;;8.90;100.00;100551.84;5015017;28;20194;-68
2023/01/23 08:44:36;;;;;;;35.73;14.93;;;;;;;8.85;100.00;100557.59;5015325;28;20260;-69
2023/01/23 08:47:04;;;;;;;24.67;15.30;;;;;;;8.97;100.00;100548.38;5016148;28;20275;-68
2023/01/23 08:49:30;;;;;;;22.33;14.33;;;;;;;9.12;100.00;100551.25;5014879;28;20276;-69
2023/01/23 08:51:58;;;;;;;26.67;15.53;;;;;;;9.12;100.00;100556.53;5018439;28;20204;-72
2023/01/23 08:54:25;;;;;;;21.50;13.90;;;;;;;9.04;100.00;100559.16;5031661;28;20213;-69
2023/01/23 08:56:52;;;;;;;20.07;14.00;;;;;;;8.97;100.00;100544.88;5014663;28;20255;-69
2023/01/23 08:59:20;;;;;;;29.27;16.23;;;;;;;8.95;100.00;100560.13;5014505;28;20256;-71
2023/01/23 09:01:47;;;;;;;27.87;15.47;;;;;;;9.00;100.00;100553.38;5015902;28;20198;-68
2023/01/23 09:04:16;;;;;;;31.80;15.87;;;;;;;8.98;100.00;100547.38;5028214;28;20324;-67
2023/01/23 09:06:43;;;;;;;28.17;17.97;;;;;;;8.99;100.00;100545.56;5017506;28;20309;-68
2023/01/23 09:09:09;;;;;;;28.17;19.80;;;;;;;9.06;100.00;100549.22;5033998;28;20198;-68
2023/01/23 09:11:36;;;;;;;33.13;18.60;;;;;;;9.15;100.00;100550.94;5032928;28;20650;-70
2023/01/23 09:14:03;;;;;;;30.40;18.17;;;;;;;8.99;100.00;100542.94;5033565;28;20714;-68
2023/01/23 09:16:31;;;;;;;32.20;16.43;;;;;;;9.08;100.00;100547.25;5033257;28;20294;-67
2023/01/23 09:18:58;;;;;;;31.20;16.47;;;;;;;9.11;100.00;100528.38;5014528;28;20252;-68
2023/01/23 09:21:24;;;;;;;24.20;15.87;;;;;;;9.08;100.00;100540.16;5011030;28;20198;-69
2023/01/23 09:23:51;;;;;;;23.53;15.47;;;;;;;9.12;100.00;100530.88;5010491;28;20202;-68
2023/01/23 09:26:18;;;;;;;20.70;13.47;;;;;;;8.88;100.00;100527.31;5013345;28;20221;-68
2023/01/23 09:28:44;;;;;;;25.30;16.10;;;;;;;8.90;100.00;100541.25;5010952;28;20198;-69
2023/01/23 09:31:13;;;;;;;22.90;13.83;;;;;;;8.84;100.00;100528.63;5013651;28;20194;-70
2023/01/23 09:33:42;;;;;;;24.70;13.97;;;;;;;8.91;100.00;100548.19;5014108;28;20252;-69
2023/01/23 09:36:09;;;;;;;26.37;14.90;;;;;;;9.06;100.00;100535.97;5013428;28;20201;-68
2023/01/23 09:38:36;;;;;;;21.13;15.10;;;;;;;8.95;100.00;100533.63;5014075;28;20759;-68
2023/01/23 09:41:10;;;;;;;25.27;15.73;;;;;;;9.09;100.00;100531.19;5013330;28;20248;-69
2023/01/23 09:43:44;;;;;;;26.67;16.03;;;;;;;9.23;100.00;100532.41;5013457;28;20646;-68
2023/01/23 09:46:18;;;;;;;25.03;15.07;;;;;;;9.11;100.00;100542.44;5013634;28;20204;-68
2023/01/23 09:48:51;;;;;;;25.00;14.80;;;;;;;9.11;100.00;100537.16;5013534;28;20193;-68
2023/01/23 09:51:24;;;;;;;26.83;15.43;;;;;;;9.21;100.00;100550.28;5010629;28;20209;-68
2023/01/23 09:53:55;;;;;;;25.70;16.20;;;;;;;9.25;100.00;100538.34;5012870;28;20193;-69
2023/01/23 09:56:30;;;;;;;27.53;17.73;;;;;;;9.36;100.00;100532.75;5015285;28;20190;-68
2023/01/23 09:59:03;;;;;;;22.60;14.63;;;;;;;9.38;100.00;100530.75;5012064;28;20239;-67
2023/01/23 10:01:31;;;;;;;22.80;13.87;;;;;;;9.39;100.00;100548.34;5013123;28;20182;-68
2023/01/23 10:04:01;;;;;;;24.60;14.67;;;;;;;9.53;100.00;100539.75;5012382;28;20198;-69
2023/01/23 10:06:30;;;;;;;21.73;14.57;;;;;;;9.53;100.00;100535.28;5016575;28;20713;-69
2023/01/23 10:09:21;;;;;;;29.53;14.90;;;;;;;9.51;100.00;100536.41;5014880;28;20194;-67
2023/01/23 10:11:58;;;;;;;21.77;14.27;;;;;;;9.57;100.00;100527.81;5011741;28;20719;-67
2023/01/23 10:14:50;;;;;;;20.43;13.47;;;;;;;9.51;100.00;100531.09;5014575;28;20239;-67
2023/01/23 10:17:27;;;;;;;21.47;14.03;;;;;;;9.50;100.00;100529.44;5019503;28;20188;-67
2023/01/23 10:20:19;;;;;;;22.40;14.03;;;;;;;9.42;100.00;100524.13;5017978;28;20248;-66
2023/01/23 10:22:56;;;;;;;24.83;14.13;;;;;;;9.46;100.00;100522.81;5018743;28;20182;-66
2023/01/23 10:25:26;;;;;;;23.13;14.60;;;;;;;9.51;100.00;100523.16;5021382;28;20186;-66
2023/01/23 10:27:58;;;;;;;24.50;14.43;;;;;;;9.40;100.00;100519.00;5013305;28;20217;-66
2023/01/23 10:30:28;;;;;;;22.80;14.43;;;;;;;9.46;100.00;100523.66;5013014;28;20653;-65
2023/01/23 10:32:58;;;;;;;19.80;13.03;;;;;;;9.48;100.00;100521.66;5012972;28;20190;-66
2023/01/23 10:35:35;;;;;;;17.47;11.77;;;;;;;9.54;100.00;100509.56;5013052;28;20186;-66
2023/01/23 10:38:06;;;;;;;17.57;12.20;;;;;;;9.63;100.00;100529.78;5013002;28;20642;-65
2023/01/23 10:43:19;;;;;;;24.60;14.93;;;;;;;9.44;100.00;100516.84;5011957;28;20260;-67
2023/01/23 10:45:47;;;;;;;18.70;12.00;;;;;;;9.43;100.00;100515.19;5015965;28;20206;-67
2023/01/23 10:48:45;;;;;;;24.67;12.30;;;;;;;9.46;100.00;100510.41;5032252;28;20290;-66
2023/01/23 10:51:35;;;;;;;18.80;13.13;;;;;;;9.30;100.00;100488.31;4970714;28;20714;-67
2023/01/23 10:54:10;;;;;;;21.33;13.77;;;;;;;9.53;100.00;100502.59;5027566;28;20631;-68
2023/01/23 10:56:46;;;;;;;23.47;15.33;;;;;;;9.36;100.00;100507.03;5031374;28;20224;-68
2023/01/23 10:59:21;;;;;;;24.70;15.73;;;;;;;9.24;100.00;100520.78;5015351;28;20272;-67
2023/01/23 11:02:00;;;;;;;26.43;16.37;;;;;;;9.28;100.00;100492.97;5012104;28;20190;-67
2023/01/23 11:04:28;;;;;;;25.87;14.50;;;;;;;9.29;100.00;100515.81;5014375;28;20178;-68
2023/01/23 11:07:07;;;;;;;20.93;15.03;;;;;;;9.31;100.00;100498.75;5011168;28;20240;-67
2023/01/23 11:09:46;;;;;;;27.87;15.77;;;;;;;9.37;100.00;100500.78;5016636;28;20691;-68
2023/01/23 11:12:17;;;;;;;29.87;16.80;;;;;;;9.40;100.00;100504.91;5024351;28;20199;-67
2023/01/23 11:14:44;;;;;;;33.77;16.47;;;;;;;9.44;100.00;100516.84;5020700;28;20229;-67
2023/01/23 11:17:20;;;;;;;27.33;17.60;;;;;;;9.28;100.00;100508.88;5011668;28;20260;-75
2023/01/23 11:19:50;;;;;;;29.03;16.40;;;;;;;9.39;100.00;100490.00;5012058;28;20221;-73
2023/01/23 11:22:30;;;;;;;28.33;16.87;;;;;;;9.41;100.00;100499.47;5011823;28;20189;-74
2023/01/23 11:24:58;;;;;;;28.07;15.10;;;;;;;9.24;100.00;100489.00;5012211;28;20637;-75
2023/01/23 11:27:27;;;;;;;27.97;17.40;;;;;;;9.38;100.00;100493.63;5011263;28;20264;-75